createdAt,value
2022-10-09T00:01:24.556Z,5.40
2022-10-09T00:03:53.066Z,5.53
2022-10-09T00:06:22.676Z,5.90
2022-10-09T00:08:49.510Z,5.57
2022-10-09T00:11:20.086Z,5.07
2022-10-09T00:13:47.216Z,4.93
2022-10-09T00:16:15.588Z,5.33
2022-10-09T00:18:43.001Z,5.20
2022-10-09T00:21:27.754Z,5.40
2022-10-09T00:23:56.390Z,5.37
2022-10-09T00:26:23.319Z,5.57
2022-10-09T00:28:50.458Z,5.20
2022-10-09T00:31:17.765Z,5.30
2022-10-09T00:33:44.754Z,5.40
2022-10-09T00:36:16.852Z,5.07
2022-10-09T00:38:43.595Z,5.73
2022-10-09T00:41:14.422Z,5.50
2022-10-09T00:43:46.609Z,5.30
2022-10-09T00:46:39.249Z,5.10
2022-10-09T00:49:30.062Z,5.30
2022-10-09T00:51:59.068Z,5.40
2022-10-09T00:54:27.811Z,5.27
2022-10-09T00:56:54.778Z,5.13
2022-10-09T00:59:21.916Z,5.10
2022-10-09T01:01:48.704Z,5.30
2022-10-09T01:04:15.328Z,5.03
2022-10-09T01:07:00.517Z,4.77
2022-10-09T01:09:47.749Z,4.77
2022-10-09T01:12:23.422Z,5.40
2022-10-09T01:15:12.993Z,5.10
2022-10-09T01:17:50.425Z,4.60
2022-10-09T01:20:32.045Z,5.33
2022-10-09T01:23:08.118Z,5.23
2022-10-09T01:25:41.720Z,5.00
2022-10-09T01:28:09.805Z,5.10
2022-10-09T01:30:37.022Z,4.57
2022-10-09T01:33:04.758Z,4.80
2022-10-09T01:35:31.797Z,4.97
2022-10-09T01:37:58.824Z,4.33
2022-10-09T01:40:26.602Z,4.37
2022-10-09T01:42:53.545Z,4.40
2022-10-09T01:45:20.126Z,4.30
2022-10-09T01:47:46.827Z,4.80
2022-10-09T01:50:23.304Z,4.30
2022-10-09T01:52:53.056Z,4.10
2022-10-09T01:55:44.529Z,2.90
2022-10-09T01:58:19.981Z,2.83
2022-10-09T02:00:54.722Z,3.53
2022-10-09T02:03:21.853Z,3.47
2022-10-09T02:05:50.055Z,2.97
2022-10-09T02:08:18.415Z,3.00
2022-10-09T02:10:46.800Z,2.70
2022-10-09T02:13:13.595Z,3.23
2022-10-09T02:15:50.321Z,3.10
2022-10-09T02:18:23.249Z,2.97
2022-10-09T02:20:52.282Z,3.17
2022-10-09T02:23:19.970Z,3.20
2022-10-09T02:25:46.626Z,3.30
2022-10-09T02:28:13.214Z,3.60
2022-10-09T02:30:59.379Z,3.37
2022-10-09T02:33:33.544Z,3.00
2022-10-09T02:36:00.774Z,3.20
2022-10-09T02:38:27.415Z,3.40
2022-10-09T02:40:58.131Z,4.20
2022-10-09T02:43:24.792Z,3.70
2022-10-09T02:45:51.407Z,4.00
2022-10-09T02:48:17.986Z,4.13
2022-10-09T02:50:44.556Z,3.67
2022-10-09T02:53:11.298Z,3.40
2022-10-09T02:55:37.890Z,3.13
2022-10-09T02:58:04.457Z,3.07
2022-10-09T03:00:31.030Z,2.97
2022-10-09T03:02:57.611Z,2.70
2022-10-09T03:05:24.185Z,2.70
2022-10-09T03:07:53.351Z,2.80
2022-10-09T03:10:20.764Z,2.80
2022-10-09T03:12:48.178Z,3.17
2022-10-09T03:15:15.077Z,2.40
2022-10-09T03:17:41.668Z,2.67
2022-10-09T03:20:08.686Z,2.43
2022-10-09T03:22:35.214Z,2.80
2022-10-09T03:25:01.770Z,2.70
2022-10-09T03:27:28.396Z,2.50
2022-10-09T03:29:54.930Z,2.40
2022-10-09T03:32:21.586Z,2.60
2022-10-09T03:34:48.172Z,2.60
2022-10-09T03:37:14.754Z,2.40
2022-10-09T03:39:41.321Z,2.57
2022-10-09T03:42:08.000Z,2.33
2022-10-09T03:44:34.522Z,2.20
2022-10-09T03:47:01.126Z,2.53
2022-10-09T03:49:27.732Z,2.27
2022-10-09T03:51:54.287Z,2.30
2022-10-09T03:54:20.879Z,2.30
2022-10-09T03:56:47.397Z,2.13
2022-10-09T03:59:13.994Z,2.73
2022-10-09T04:01:40.542Z,2.47
2022-10-09T04:04:07.118Z,2.43
2022-10-09T04:06:33.665Z,2.30
2022-10-09T04:09:01.222Z,2.30
2022-10-09T04:11:27.769Z,2.30
2022-10-09T04:13:54.343Z,2.30
2022-10-09T04:16:21.028Z,2.00
2022-10-09T04:18:47.949Z,2.10
2022-10-09T04:21:14.498Z,2.33
2022-10-09T04:23:41.137Z,2.13
2022-10-09T04:26:07.743Z,2.20
2022-10-09T04:28:34.361Z,2.80
2022-10-09T04:31:01.474Z,2.40
2022-10-09T04:33:28.262Z,2.23
2022-10-09T04:35:55.892Z,2.27
2022-10-09T04:38:23.514Z,2.30
2022-10-09T04:41:04.042Z,2.70
2022-10-09T04:43:31.450Z,2.30
2022-10-09T04:45:58.561Z,2.70
2022-10-09T04:48:25.952Z,2.50
2022-10-09T04:50:52.494Z,2.37
2022-10-09T04:53:19.202Z,2.20
2022-10-09T04:55:45.783Z,2.17
2022-10-09T04:58:13.022Z,2.30
2022-10-09T05:00:43.712Z,2.40
2022-10-09T05:03:12.032Z,2.40
2022-10-09T05:05:38.695Z,2.50
2022-10-09T05:08:05.375Z,2.20
2022-10-09T05:10:32.787Z,2.73
2022-10-09T05:12:59.819Z,2.57
2022-10-09T05:15:26.492Z,2.50
2022-10-09T05:17:53.022Z,2.47
2022-10-09T05:20:19.598Z,2.30
2022-10-09T05:22:47.415Z,2.57
2022-10-09T05:25:14.568Z,2.60
2022-10-09T05:27:41.290Z,2.27
2022-10-09T05:30:08.939Z,2.10
2022-10-09T05:32:35.525Z,2.20
2022-10-09T05:35:02.098Z,2.37
2022-10-09T05:37:28.706Z,2.40
2022-10-09T05:39:55.354Z,2.33
2022-10-09T05:42:22.030Z,2.10
2022-10-09T05:44:48.571Z,2.00
2022-10-09T05:47:17.937Z,2.43
2022-10-09T05:49:44.556Z,2.10
2022-10-09T05:52:11.164Z,2.30
2022-10-09T05:54:37.722Z,2.40
2022-10-09T05:57:04.958Z,2.20
2022-10-09T05:59:31.500Z,2.00
2022-10-09T06:01:59.150Z,2.10
2022-10-09T06:04:25.841Z,2.10
2022-10-09T06:06:52.611Z,1.97
2022-10-09T06:09:24.298Z,2.20
2022-10-09T06:11:52.172Z,2.00
2022-10-09T06:14:22.202Z,2.10
2022-10-09T06:16:49.414Z,1.80
2022-10-09T06:19:17.258Z,1.87
2022-10-09T06:21:44.734Z,2.00
2022-10-09T06:24:17.977Z,2.13
2022-10-09T06:26:44.585Z,1.83
2022-10-09T06:29:11.170Z,2.00
2022-10-09T06:31:38.134Z,1.90
2022-10-09T06:34:04.879Z,1.90
2022-10-09T06:36:34.230Z,1.80
2022-10-09T06:39:02.259Z,1.83
2022-10-09T06:41:29.821Z,2.07
2022-10-09T06:43:58.728Z,1.80
2022-10-09T06:46:39.899Z,2.13
2022-10-09T06:49:07.743Z,1.90
2022-10-09T06:51:35.194Z,1.80
2022-10-09T06:54:04.222Z,1.53
2022-10-09T06:56:32.060Z,1.60
2022-10-09T06:59:03.354Z,1.67
2022-10-09T07:01:32.214Z,1.70
2022-10-09T07:04:06.832Z,1.90
2022-10-09T07:06:36.549Z,1.60
2022-10-09T07:09:05.985Z,1.70
2022-10-09T07:11:35.120Z,1.70
2022-10-09T07:14:03.687Z,1.60
2022-10-09T07:16:33.293Z,1.90
2022-10-09T07:19:06.017Z,1.70
2022-10-09T07:21:32.948Z,1.80
2022-10-09T07:24:00.884Z,1.70
2022-10-09T07:26:29.427Z,1.57
2022-10-09T07:28:56.680Z,1.70
2022-10-09T07:31:23.599Z,2.03
2022-10-09T07:33:51.402Z,1.60
2022-10-09T07:36:18.204Z,1.87
2022-10-09T07:38:48.896Z,1.63
2022-10-09T07:41:15.525Z,1.43
2022-10-09T07:43:42.707Z,1.50
2022-10-09T07:46:14.391Z,1.90
2022-10-09T07:48:41.312Z,1.30
2022-10-09T07:51:14.101Z,1.50
2022-10-09T07:53:40.853Z,1.40
2022-10-09T07:56:12.445Z,1.50
2022-10-09T07:58:39.045Z,1.30
2022-10-09T08:01:07.061Z,1.80
2022-10-09T08:03:34.853Z,1.70
2022-10-09T08:06:01.521Z,1.63
2022-10-09T08:08:28.362Z,1.70
2022-10-09T08:10:55.021Z,1.80
2022-10-09T08:13:21.703Z,1.53
2022-10-09T08:15:48.498Z,1.20
2022-10-09T08:18:15.450Z,1.43
2022-10-09T08:20:42.143Z,1.50
2022-10-09T08:25:59.554Z,1.70
2022-10-09T08:28:26.370Z,1.57
2022-10-09T08:30:53.095Z,1.70
2022-10-09T08:33:22.042Z,1.50
2022-10-09T08:35:50.071Z,1.80
2022-10-09T08:38:37.560Z,1.83
2022-10-09T08:41:10.202Z,1.77
2022-10-09T08:43:39.942Z,1.70
2022-10-09T08:46:20.759Z,1.63
2022-10-09T08:48:49.385Z,1.50
2022-10-09T08:51:22.434Z,1.83
2022-10-09T08:54:03.537Z,1.83
2022-10-09T08:56:30.422Z,2.00
2022-10-09T08:58:57.194Z,1.63
2022-10-09T09:01:31.633Z,1.57
2022-10-09T09:04:17.093Z,1.87
2022-10-09T09:07:09.245Z,2.20
2022-10-09T09:09:42.841Z,1.90
2022-10-09T09:12:41.590Z,2.20
2022-10-09T09:15:31.131Z,1.73
2022-10-09T09:18:16.181Z,2.00
2022-10-09T09:20:54.051Z,1.90
2022-10-09T09:23:28.194Z,1.77
2022-10-09T09:25:55.228Z,2.30
2022-10-09T09:28:28.590Z,2.10
2022-10-09T09:31:00.018Z,2.03
2022-10-09T09:33:45.720Z,2.30
2022-10-09T09:36:18.455Z,2.37
2022-10-09T09:39:22.644Z,2.30
2022-10-09T09:41:32.171Z,2.20
2022-10-09T09:43:58.738Z,2.20
2022-10-09T09:46:29.444Z,2.10
2022-10-09T09:48:56.184Z,2.10
2022-10-09T09:51:29.221Z,2.30
2022-10-09T09:53:58.617Z,2.13
2022-10-09T09:57:06.920Z,3.13
2022-10-09T09:59:41.168Z,2.20
2022-10-09T10:02:15.528Z,2.30
2022-10-09T10:04:54.331Z,2.17
2022-10-09T10:07:51.407Z,2.57
2022-10-09T10:10:25.719Z,2.30
2022-10-09T10:12:52.775Z,2.10
2022-10-09T10:15:23.662Z,2.07
2022-10-09T10:17:57.521Z,2.20
2022-10-09T10:20:24.689Z,1.60
2022-10-09T10:22:53.746Z,2.10
2022-10-09T10:25:23.706Z,2.13
2022-10-09T10:27:53.761Z,2.10
2022-10-09T10:30:20.394Z,2.07
2022-10-09T10:32:58.117Z,1.93
2022-10-09T10:35:27.842Z,1.90
2022-10-09T10:38:17.326Z,2.00
2022-10-09T10:40:57.038Z,2.30
2022-10-09T10:43:34.801Z,2.57
2022-10-09T10:46:26.243Z,2.20
2022-10-09T10:48:53.372Z,2.70
2022-10-09T10:51:25.988Z,2.10
2022-10-09T10:54:08.943Z,2.33
2022-10-09T10:56:45.927Z,2.37
2022-10-09T10:59:35.222Z,2.30
2022-10-09T11:02:20.970Z,2.20
2022-10-09T11:05:09.718Z,2.40
2022-10-09T11:08:01.312Z,2.20
2022-10-09T11:10:31.555Z,2.33
2022-10-09T11:13:08.328Z,2.37
2022-10-09T11:15:53.154Z,2.60
2022-10-09T11:18:37.508Z,2.60
2022-10-09T11:21:28.918Z,1.60
2022-10-09T11:24:31.662Z,2.20
2022-10-09T11:27:04.398Z,2.00
2022-10-09T11:29:36.892Z,1.87
2022-10-09T11:32:23.946Z,2.20
2022-10-09T11:35:15.902Z,1.70
2022-10-09T11:37:44.111Z,2.33
2022-10-09T11:40:36.752Z,1.80
2022-10-09T11:43:14.457Z,2.10
2022-10-09T11:45:46.961Z,2.00
2022-10-09T11:48:39.204Z,2.03
2022-10-09T11:51:30.398Z,2.37
2022-10-09T11:53:57.670Z,1.80
2022-10-09T11:56:26.867Z,2.00
2022-10-09T11:59:02.002Z,1.70
2022-10-09T12:01:41.573Z,1.90
2022-10-09T12:04:53.507Z,1.87
2022-10-09T12:07:33.756Z,1.80
2022-10-09T12:10:21.964Z,1.57
2022-10-09T12:13:04.678Z,1.50
2022-10-09T12:15:45.436Z,1.40
2022-10-09T12:18:30.476Z,1.60
2022-10-09T12:21:00.062Z,1.63
2022-10-09T12:23:29.841Z,1.80
2022-10-09T12:25:57.030Z,1.83
2022-10-09T12:28:51.380Z,2.50
2022-10-09T12:31:22.608Z,1.80
2022-10-09T12:33:53.446Z,1.90
2022-10-09T12:36:25.776Z,1.80
2022-10-09T12:38:52.646Z,1.50
2022-10-09T12:41:30.750Z,1.70
2022-10-09T12:43:57.899Z,1.60
2022-10-09T12:46:36.604Z,1.80
2022-10-09T12:49:06.017Z,1.40
2022-10-09T12:51:33.577Z,1.70
2022-10-09T12:54:00.456Z,1.60
2022-10-09T12:56:29.398Z,1.60
2022-10-09T12:58:57.800Z,1.43
2022-10-09T13:01:24.686Z,1.50
2022-10-09T13:03:59.645Z,1.27
2022-10-09T13:06:28.940Z,1.33
2022-10-09T13:09:01.560Z,1.50
2022-10-09T13:11:40.561Z,1.50
2022-10-09T13:14:25.426Z,1.80
2022-10-09T13:16:52.109Z,1.60
2022-10-09T13:19:27.175Z,1.63
2022-10-09T13:22:17.472Z,1.60
2022-10-09T13:24:44.104Z,1.70
2022-10-09T13:27:11.992Z,1.50
2022-10-09T13:29:39.150Z,1.57
2022-10-09T13:32:05.739Z,1.30
2022-10-09T13:34:32.287Z,1.40
2022-10-09T13:36:58.834Z,1.40
2022-10-09T13:39:25.465Z,1.30
2022-10-09T13:41:57.293Z,1.10
2022-10-09T13:44:24.296Z,1.50
2022-10-09T13:46:50.964Z,1.60
2022-10-09T13:49:17.634Z,1.27
2022-10-09T13:51:44.285Z,1.40
2022-10-09T13:54:10.842Z,1.50
2022-10-09T13:56:37.371Z,1.33
2022-10-09T13:59:04.409Z,1.50
2022-10-09T14:01:30.996Z,1.20
2022-10-09T14:03:57.646Z,1.30
2022-10-09T14:06:24.246Z,1.30
2022-10-09T14:08:50.867Z,1.20
2022-10-09T14:11:17.437Z,1.10
2022-10-09T14:13:44.005Z,1.20
2022-10-09T14:16:11.276Z,1.10
2022-10-09T14:18:37.972Z,1.37
2022-10-09T14:21:15.061Z,1.20
2022-10-09T14:23:42.782Z,1.20
2022-10-09T14:26:09.520Z,1.20
2022-10-09T14:28:36.225Z,0.93
2022-10-09T14:31:08.646Z,1.00
2022-10-09T14:33:35.312Z,1.27
2022-10-09T14:36:09.223Z,1.23
2022-10-09T14:38:37.352Z,1.20
2022-10-09T14:41:04.684Z,1.40
2022-10-09T14:43:31.238Z,1.30
2022-10-09T14:46:12.104Z,1.37
2022-10-09T14:48:40.039Z,1.30
2022-10-09T14:51:09.628Z,1.37
2022-10-09T14:53:36.177Z,1.23
2022-10-09T14:56:04.732Z,1.10
2022-10-09T14:58:32.091Z,1.13
2022-10-09T15:00:59.071Z,1.20
2022-10-09T15:03:26.820Z,0.97
2022-10-09T15:06:00.358Z,1.30
2022-10-09T15:08:29.557Z,1.30
2022-10-09T15:10:56.109Z,1.10
2022-10-09T15:13:22.650Z,1.13
2022-10-09T15:15:49.177Z,1.40
2022-10-09T15:18:15.785Z,1.40
2022-10-09T15:20:46.362Z,1.40
2022-10-09T15:23:13.394Z,1.30
2022-10-09T15:25:40.165Z,1.43
2022-10-09T15:28:06.879Z,1.10
2022-10-09T15:30:33.424Z,1.30
2022-10-09T15:33:03.245Z,1.63
2022-10-09T15:35:29.831Z,1.20
2022-10-09T15:37:56.433Z,1.27
2022-10-09T15:40:22.981Z,1.40
2022-10-09T15:42:49.784Z,1.40
2022-10-09T15:45:16.561Z,1.40
2022-10-09T15:47:50.839Z,1.73
2022-10-09T15:50:18.096Z,1.60
2022-10-09T15:52:44.679Z,1.43
2022-10-09T15:55:11.357Z,2.10
2022-10-09T15:57:37.897Z,3.70
2022-10-09T16:00:04.971Z,3.17
2022-10-09T16:02:31.516Z,2.40
2022-10-09T16:04:58.184Z,2.80
2022-10-09T16:07:24.783Z,2.13
2022-10-09T16:09:51.547Z,2.00
2022-10-09T16:12:18.232Z,2.00
2022-10-09T16:14:44.800Z,1.87
2022-10-09T16:17:11.666Z,2.10
2022-10-09T16:19:38.370Z,2.10
2022-10-09T16:22:05.953Z,1.93
2022-10-09T16:24:32.678Z,1.97
2022-10-09T16:26:59.282Z,2.40
2022-10-09T16:29:25.844Z,2.00
2022-10-09T16:31:54.872Z,3.83
2022-10-09T16:34:21.456Z,8.37
2022-10-09T16:36:48.114Z,11.87
2022-10-09T16:39:14.671Z,11.80
2022-10-09T16:41:42.179Z,9.87
2022-10-09T16:44:12.781Z,7.87
2022-10-09T16:46:39.498Z,4.97
2022-10-09T16:49:06.120Z,3.53
2022-10-09T16:51:35.519Z,3.23
2022-10-09T16:54:04.894Z,2.70
2022-10-09T16:56:34.743Z,2.20
2022-10-09T16:59:03.711Z,2.30
2022-10-09T17:01:30.505Z,2.63
2022-10-09T17:03:58.299Z,3.00
2022-10-09T17:06:25.138Z,2.73
2022-10-09T17:08:52.634Z,2.63
2022-10-09T17:11:19.719Z,3.20
2022-10-09T17:13:47.429Z,3.23
2022-10-09T17:16:18.470Z,3.53
2022-10-09T17:18:46.846Z,3.47
2022-10-09T17:21:14.202Z,3.40
2022-10-09T17:23:40.853Z,3.60
2022-10-09T17:26:08.279Z,3.50
2022-10-09T17:28:35.538Z,3.60
2022-10-09T17:31:03.955Z,3.50
2022-10-09T17:33:31.321Z,3.77
2022-10-09T17:35:58.109Z,4.53
2022-10-09T17:38:25.128Z,5.30
2022-10-09T17:40:51.713Z,5.13
2022-10-09T17:43:18.309Z,5.83
2022-10-09T17:45:46.870Z,5.60
2022-10-09T17:48:13.621Z,5.60
2022-10-09T17:50:40.321Z,5.90
2022-10-09T17:53:07.182Z,6.13
2022-10-09T17:55:38.062Z,6.10
2022-10-09T17:58:04.661Z,6.60
2022-10-09T18:00:32.445Z,6.40
2022-10-09T18:02:59.042Z,6.07
2022-10-09T18:05:25.603Z,5.83
2022-10-09T18:07:52.556Z,5.97
2022-10-09T18:10:20.752Z,6.23
2022-10-09T18:12:47.415Z,5.50
2022-10-09T18:15:14.223Z,6.00
2022-10-09T18:17:40.886Z,5.63
2022-10-09T18:20:08.042Z,5.97
2022-10-09T18:22:37.553Z,5.90
2022-10-09T18:25:05.267Z,5.90
2022-10-09T18:27:32.063Z,6.40
2022-10-09T18:29:58.668Z,7.00
2022-10-09T18:32:25.290Z,7.57
2022-10-09T18:34:51.849Z,7.00
2022-10-09T18:37:19.997Z,7.53
2022-10-09T18:39:46.611Z,7.90
2022-10-09T18:42:13.129Z,9.73
2022-10-09T18:44:41.434Z,9.73
2022-10-09T18:47:11.809Z,10.77
2022-10-09T18:49:41.667Z,11.90
2022-10-09T18:52:09.455Z,12.80
2022-10-09T18:54:36.256Z,12.10
2022-10-09T18:57:03.889Z,11.80
2022-10-09T18:59:30.654Z,12.00
2022-10-09T19:01:57.184Z,11.70
2022-10-09T19:04:23.891Z,11.27
2022-10-09T19:06:51.242Z,11.93
2022-10-09T19:09:17.810Z,12.40
2022-10-09T19:11:44.396Z,14.10
2022-10-09T19:14:10.925Z,14.30
2022-10-09T19:16:37.517Z,14.03
2022-10-09T19:19:04.261Z,15.23
2022-10-09T19:21:30.813Z,13.20
2022-10-09T19:24:03.311Z,10.33
2022-10-09T19:26:30.041Z,10.10
2022-10-09T19:28:56.583Z,8.57
2022-10-09T19:31:23.112Z,7.63
2022-10-09T19:33:49.654Z,6.00
2022-10-09T19:36:16.398Z,5.23
2022-10-09T19:38:42.996Z,4.67
2022-10-09T19:41:13.094Z,4.40
2022-10-09T19:43:39.960Z,5.03
2022-10-09T19:46:09.495Z,4.83
2022-10-09T19:48:36.649Z,4.87
2022-10-09T19:51:24.166Z,4.23
2022-10-09T19:53:53.433Z,4.77
2022-10-09T19:56:23.449Z,4.80
2022-10-09T19:58:50.625Z,4.70
2022-10-09T20:01:20.133Z,5.20
2022-10-09T20:03:47.485Z,4.50
2022-10-09T20:06:14.597Z,4.53
2022-10-09T20:08:42.344Z,4.70
2022-10-09T20:11:11.376Z,4.40
2022-10-09T20:13:39.273Z,4.57
2022-10-09T20:16:08.681Z,4.63
2022-10-09T20:18:35.745Z,4.60
2022-10-09T20:21:02.281Z,4.23
2022-10-09T20:23:28.813Z,4.53
2022-10-09T20:26:00.247Z,4.17
2022-10-09T20:28:26.922Z,4.50
2022-10-09T20:30:57.569Z,4.10
2022-10-09T20:33:24.141Z,4.27
2022-10-09T20:35:50.683Z,4.07
2022-10-09T20:38:20.851Z,4.70
2022-10-09T20:40:51.431Z,4.30
2022-10-09T20:43:18.024Z,3.97
2022-10-09T20:45:45.690Z,4.23
2022-10-09T20:48:12.290Z,4.00
2022-10-09T20:50:40.446Z,4.07
2022-10-09T20:53:09.041Z,4.00
2022-10-09T20:55:36.036Z,4.50
2022-10-09T20:58:02.667Z,5.10
2022-10-09T21:00:29.206Z,6.67
2022-10-09T21:02:56.161Z,7.37
2022-10-09T21:05:22.692Z,7.50
2022-10-09T21:07:49.429Z,6.77
2022-10-09T21:10:15.945Z,5.77
2022-10-09T21:12:42.503Z,5.90
2022-10-09T21:15:09.435Z,5.47
2022-10-09T21:17:35.967Z,6.10
2022-10-09T21:20:02.805Z,7.63
2022-10-09T21:22:29.340Z,7.53
2022-10-09T21:24:55.898Z,7.93
2022-10-09T21:27:22.434Z,8.50
2022-10-09T21:29:49.001Z,9.00
2022-10-09T21:32:15.555Z,9.83
2022-10-09T21:34:42.086Z,9.60
2022-10-09T21:37:21.325Z,9.30
2022-10-09T21:39:48.629Z,7.87
2022-10-09T21:42:15.142Z,7.60
2022-10-09T21:44:41.734Z,6.43
2022-10-09T21:47:18.763Z,6.43
2022-10-09T21:49:45.357Z,5.53
2022-10-09T21:52:11.916Z,5.70
2022-10-09T21:54:38.574Z,5.57
2022-10-09T21:57:05.095Z,6.03
2022-10-09T21:59:31.710Z,5.10
2022-10-09T22:01:58.286Z,5.47
2022-10-09T22:04:24.916Z,5.10
2022-10-09T22:06:51.489Z,5.17
2022-10-09T22:09:18.195Z,5.00
2022-10-09T22:11:44.972Z,5.47
2022-10-09T22:14:12.033Z,5.10
2022-10-09T22:16:38.582Z,4.50
2022-10-09T22:19:05.189Z,4.80
2022-10-09T22:21:31.937Z,4.60
2022-10-09T22:23:59.986Z,4.77
2022-10-09T22:26:26.661Z,4.50
2022-10-09T22:28:53.205Z,4.53
2022-10-09T22:31:22.375Z,4.37
2022-10-09T22:34:00.355Z,4.63
2022-10-09T22:36:29.823Z,4.53
2022-10-09T22:38:58.425Z,5.50
2022-10-09T22:41:26.085Z,5.67
2022-10-09T22:43:54.537Z,5.20
2022-10-09T22:46:27.259Z,4.87
2022-10-09T22:48:53.921Z,4.83
2022-10-09T22:51:22.392Z,5.03
2022-10-09T22:53:49.954Z,5.27
2022-10-09T22:56:22.445Z,4.37
2022-10-09T22:58:49.625Z,4.27
2022-10-09T23:01:25.067Z,4.03
2022-10-09T23:03:51.793Z,5.00
2022-10-09T23:06:19.925Z,5.23
2022-10-09T23:08:48.149Z,4.80
2022-10-09T23:11:15.794Z,3.40
2022-10-09T23:13:42.457Z,3.90
2022-10-09T23:16:10.979Z,3.53
2022-10-09T23:18:38.297Z,4.10
2022-10-09T23:21:06.895Z,4.17
2022-10-09T23:23:34.121Z,4.27
2022-10-09T23:26:08.161Z,4.30
2022-10-09T23:28:35.728Z,4.27
2022-10-09T23:31:03.882Z,4.23
2022-10-09T23:33:30.425Z,4.40
2022-10-09T23:35:57.214Z,4.10
2022-10-09T23:38:24.103Z,3.93
2022-10-09T23:40:57.207Z,3.90
2022-10-09T23:43:24.329Z,4.20
2022-10-09T23:45:51.698Z,4.07
2022-10-09T23:48:18.305Z,3.93
2022-10-09T23:50:44.828Z,4.00
2022-10-09T23:53:11.405Z,4.20
2022-10-09T23:55:37.922Z,4.27
2022-10-09T23:58:04.531Z,4.20
